sensor_id;sensor_type;location;lat;lon;timestamp;P1;durP1;ratioP1;P2;durP2;ratioP2
53618;SDS011;39505;53.040;18.488;2022-12-05T00:00:00;59.38;;;31.05;;
53618;SDS011;39505;53.040;18.488;2022-12-05T00:00:13;56.28;;;29.38;;
53618;SDS011;39505;53.040;18.488;2022-12-05T00:00:47;54.90;;;30.30;;
53618;SDS011;39505;53.040;18.488;2022-12-05T00:01:10;56.12;;;30.72;;
53618;SDS011;39505;53.040;18.488;2022-12-05T00:01:27;53.97;;;30.10;;
53618;SDS011;39505;53.040;18.488;2022-12-05T00:01:42;53.17;;;30.25;;
53618;SDS011;39505;53.040;18.488;2022-12-05T00:01:55;53.67;;;30.15;;
53618;SDS011;39505;53.040;18.488;2022-12-05T00:02:08;54.40;;;29.98;;
53618;SDS011;39505;53.040;18.488;2022-12-05T00:02:22;56.63;;;30.33;;
53618;SDS011;39505;53.040;18.488;2022-12-05T00:02:34;55.85;;;30.38;;
53618;SDS011;39505;53.040;18.488;2022-12-05T00:02:47;53.83;;;30.00;;
53618;SDS011;39505;53.040;18.488;2022-12-05T00:03:02;54.35;;;30.25;;
53618;SDS011;39505;53.040;18.488;2022-12-05T00:03:15;54.85;;;30.85;;
53618;SDS011;39505;53.040;18.488;2022-12-05T00:03:28;54.88;;;30.90;;
53618;SDS011;39505;53.040;18.488;2022-12-05T00:03:41;57.40;;;31.17;;
53618;SDS011;39505;53.040;18.488;2022-12-05T00:03:55;59.78;;;31.48;;
53618;SDS011;39505;53.040;18.488;2022-12-05T00:04:10;59.00;;;31.20;;
53618;SDS011;39505;53.040;18.488;2022-12-05T00:04:23;55.50;;;30.48;;
53618;SDS011;39505;53.040;18.488;2022-12-05T00:04:36;53.30;;;29.98;;
53618;SDS011;39505;53.040;18.488;2022-12-05T00:04:49;52.13;;;30.38;;
53618;SDS011;39505;53.040;18.488;2022-12-05T00:05:03;53.83;;;30.60;;
53618;SDS011;39505;53.040;18.488;2022-12-05T00:05:16;56.70;;;30.70;;
53618;SDS011;39505;53.040;18.488;2022-12-05T00:05:29;58.22;;;31.35;;
53618;SDS011;39505;53.040;18.488;2022-12-05T00:05:42;59.50;;;31.58;;
53618;SDS011;39505;53.040;18.488;2022-12-05T00:05:56;57.35;;;30.55;;
53618;SDS011;39505;53.040;18.488;2022-12-05T00:06:09;53.78;;;28.88;;
53618;SDS011;39505;53.040;18.488;2022-12-05T00:06:23;52.10;;;28.92;;
53618;SDS011;39505;53.040;18.488;2022-12-05T00:06:38;52.83;;;29.75;;
53618;SDS011;39505;53.040;18.488;2022-12-05T00:06:52;54.67;;;29.48;;
53618;SDS011;39505;53.040;18.488;2022-12-05T00:07:04;55.22;;;29.63;;
53618;SDS011;39505;53.040;18.488;2022-12-05T00:07:18;54.47;;;29.40;;
53618;SDS011;39505;53.040;18.488;2022-12-05T00:07:30;52.63;;;29.02;;
53618;SDS011;39505;53.040;18.488;2022-12-05T00:07:43;53.25;;;29.55;;
53618;SDS011;39505;53.040;18.488;2022-12-05T00:07:56;52.30;;;30.05;;
53618;SDS011;39505;53.040;18.488;2022-12-05T00:08:09;54.20;;;30.70;;
53618;SDS011;39505;53.040;18.488;2022-12-05T00:08:22;54.67;;;30.05;;
53618;SDS011;39505;53.040;18.488;2022-12-05T00:08:35;52.72;;;29.35;;
53618;SDS011;39505;53.040;18.488;2022-12-05T00:08:48;54.88;;;30.15;;
53618;SDS011;39505;53.040;18.488;2022-12-05T00:09:01;56.97;;;30.50;;
53618;SDS011;39505;53.040;18.488;2022-12-05T00:09:16;55.85;;;29.50;;
53618;SDS011;39505;53.040;18.488;2022-12-05T00:09:28;53.92;;;27.60;;
53618;SDS011;39505;53.040;18.488;2022-12-05T00:09:41;52.78;;;27.00;;
53618;SDS011;39505;53.040;18.488;2022-12-05T00:09:54;55.50;;;28.80;;
53618;SDS011;39505;53.040;18.488;2022-12-05T00:10:08;57.13;;;30.15;;
53618;SDS011;39505;53.040;18.488;2022-12-05T00:10:22;58.15;;;30.20;;
53618;SDS011;39505;53.040;18.488;2022-12-05T00:10:34;58.35;;;30.65;;
53618;SDS011;39505;53.040;18.488;2022-12-05T00:10:47;57.42;;;31.13;;
53618;SDS011;39505;53.040;18.488;2022-12-05T00:11:00;56.50;;;30.92;;
53618;SDS011;39505;53.040;18.488;2022-12-05T00:11:13;53.90;;;29.40;;
53618;SDS011;39505;53.040;18.488;2022-12-05T00:11:28;54.90;;;29.50;;
53618;SDS011;39505;53.040;18.488;2022-12-05T00:11:43;57.35;;;31.00;;
53618;SDS011;39505;53.040;18.488;2022-12-05T00:11:56;56.33;;;31.02;;
53618;SDS011;39505;53.040;18.488;2022-12-05T00:12:09;53.78;;;30.52;;
53618;SDS011;39505;53.040;18.488;2022-12-05T00:12:23;55.53;;;30.23;;
53618;SDS011;39505;53.040;18.488;2022-12-05T00:12:36;57.22;;;30.30;;
53618;SDS011;39505;53.040;18.488;2022-12-05T00:12:49;55.10;;;29.70;;
53618;SDS011;39505;53.040;18.488;2022-12-05T00:13:02;52.08;;;28.92;;
53618;SDS011;39505;53.040;18.488;2022-12-05T00:13:15;53.20;;;29.38;;
53618;SDS011;39505;53.040;18.488;2022-12-05T00:13:28;54.63;;;30.40;;
53618;SDS011;39505;53.040;18.488;2022-12-05T00:13:41;55.47;;;30.35;;
53618;SDS011;39505;53.040;18.488;2022-12-05T00:13:56;56.75;;;30.63;;
53618;SDS011;39505;53.040;18.488;2022-12-05T00:14:10;56.55;;;30.73;;
53618;SDS011;39505;53.040;18.488;2022-12-05T00:14:24;55.10;;;30.80;;
53618;SDS011;39505;53.040;18.488;2022-12-05T00:14:37;57.35;;;31.65;;
53618;SDS011;39505;53.040;18.488;2022-12-05T00:14:50;59.28;;;31.95;;
53618;SDS011;39505;53.040;18.488;2022-12-05T00:15:03;60.78;;;32.25;;
53618;SDS011;39505;53.040;18.488;2022-12-05T00:15:16;58.90;;;31.94;;
53618;SDS011;39505;53.040;18.488;2022-12-05T00:15:29;56.75;;;31.90;;
53618;SDS011;39505;53.040;18.488;2022-12-05T00:15:42;57.72;;;31.35;;
53618;SDS011;39505;53.040;18.488;2022-12-05T00:15:55;59.28;;;31.08;;
53618;SDS011;39505;53.040;18.488;2022-12-05T00:16:08;60.63;;;30.75;;
53618;SDS011;39505;53.040;18.488;2022-12-05T00:16:23;57.33;;;30.27;;
53618;SDS011;39505;53.040;18.488;2022-12-05T00:16:37;53.55;;;30.30;;
53618;SDS011;39505;53.040;18.488;2022-12-05T00:16:52;55.90;;;30.40;;
53618;SDS011;39505;53.040;18.488;2022-12-05T00:17:05;55.78;;;29.95;;
53618;SDS011;39505;53.040;18.488;2022-12-05T00:17:17;55.00;;;30.25;;
53618;SDS011;39505;53.040;18.488;2022-12-05T00:17:31;54.90;;;30.90;;
53618;SDS011;39505;53.040;18.488;2022-12-05T00:17:44;55.65;;;31.30;;
53618;SDS011;39505;53.040;18.488;2022-12-05T00:17:56;60.03;;;31.42;;
53618;SDS011;39505;53.040;18.488;2022-12-05T00:18:09;62.72;;;31.50;;
53618;SDS011;39505;53.040;18.488;2022-12-05T00:18:22;60.78;;;30.92;;
53618;SDS011;39505;53.040;18.488;2022-12-05T00:18:34;60.22;;;30.85;;
53618;SDS011;39505;53.040;18.488;2022-12-05T00:18:47;57.78;;;31.02;;
53618;SDS011;39505;53.040;18.488;2022-12-05T00:19:00;56.55;;;30.73;;
53618;SDS011;39505;53.040;18.488;2022-12-05T00:19:15;56.17;;;30.63;;
53618;SDS011;39505;53.040;18.488;2022-12-05T00:19:27;57.50;;;30.92;;
53618;SDS011;39505;53.040;18.488;2022-12-05T00:19:40;57.05;;;31.05;;
53618;SDS011;39505;53.040;18.488;2022-12-05T00:19:53;55.63;;;31.13;;
53618;SDS011;39505;53.040;18.488;2022-12-05T00:20:08;54.90;;;31.10;;
53618;SDS011;39505;53.040;18.488;2022-12-05T00:20:22;56.25;;;30.73;;
53618;SDS011;39505;53.040;18.488;2022-12-05T00:20:35;59.03;;;30.45;;
53618;SDS011;39505;53.040;18.488;2022-12-05T00:20:48;57.88;;;29.75;;
53618;SDS011;39505;53.040;18.488;2022-12-05T00:21:02;55.38;;;29.55;;
53618;SDS011;39505;53.040;18.488;2022-12-05T00:21:16;52.65;;;28.98;;
53618;SDS011;39505;53.040;18.488;2022-12-05T00:21:30;53.97;;;29.30;;
53618;SDS011;39505;53.040;18.488;2022-12-05T00:21:44;54.08;;;29.65;;
53618;SDS011;39505;53.040;18.488;2022-12-05T00:21:58;53.25;;;29.98;;
53618;SDS011;39505;53.040;18.488;2022-12-05T00:22:11;54.72;;;30.48;;
53618;SDS011;39505;53.040;18.488;2022-12-05T00:22:24;55.78;;;30.63;;
53618;SDS011;39505;53.040;18.488;2022-12-05T00:22:37;55.80;;;30.38;;
53618;SDS011;39505;53.040;18.488;2022-12-05T00:22:50;55.45;;;30.13;;
53618;SDS011;39505;53.040;18.488;2022-12-05T00:23:03;56.40;;;30.30;;
53618;SDS011;39505;53.040;18.488;2022-12-05T00:23:16;55.72;;;30.33;;
53618;SDS011;39505;53.040;18.488;2022-12-05T00:23:29;56.38;;;30.83;;
53618;SDS011;39505;53.040;18.488;2022-12-05T00:23:42;56.65;;;32.10;;
53618;SDS011;39505;53.040;18.488;2022-12-05T00:23:55;56.08;;;31.77;;
53618;SDS011;39505;53.040;18.488;2022-12-05T00:24:10;56.85;;;31.25;;
53618;SDS011;39505;53.040;18.488;2022-12-05T00:24:25;58.50;;;30.67;;
53618;SDS011;39505;53.040;18.488;2022-12-05T00:24:39;59.35;;;30.73;;
53618;SDS011;39505;53.040;18.488;2022-12-05T00:24:51;57.08;;;30.92;;
53618;SDS011;39505;53.040;18.488;2022-12-05T00:25:05;55.35;;;30.90;;
53618;SDS011;39505;53.040;18.488;2022-12-05T00:25:18;55.72;;;31.42;;
53618;SDS011;39505;53.040;18.488;2022-12-05T00:25:31;57.05;;;31.42;;
53618;SDS011;39505;53.040;18.488;2022-12-05T00:25:43;56.50;;;31.02;;
53618;SDS011;39505;53.040;18.488;2022-12-05T00:26:00;54.60;;;31.00;;
53618;SDS011;39505;53.040;18.488;2022-12-05T00:26:14;56.33;;;31.38;;
53618;SDS011;39505;53.040;18.488;2022-12-05T00:26:27;56.10;;;31.13;;
53618;SDS011;39505;53.040;18.488;2022-12-05T00:26:39;53.58;;;30.23;;
53618;SDS011;39505;53.040;18.488;2022-12-05T00:26:52;53.45;;;30.30;;
53618;SDS011;39505;53.040;18.488;2022-12-05T00:27:05;56.78;;;31.10;;
53618;SDS011;39505;53.040;18.488;2022-12-05T00:27:19;58.90;;;31.52;;
53618;SDS011;39505;53.040;18.488;2022-12-05T00:27:31;59.22;;;31.48;;
53618;SDS011;39505;53.040;18.488;2022-12-05T00:27:45;56.65;;;31.55;;
53618;SDS011;39505;53.040;18.488;2022-12-05T00:27:57;54.13;;;31.08;;
53618;SDS011;39505;53.040;18.488;2022-12-05T00:28:10;53.60;;;30.35;;
53618;SDS011;39505;53.040;18.488;2022-12-05T00:28:23;53.97;;;29.27;;
53618;SDS011;39505;53.040;18.488;2022-12-05T00:28:36;53.58;;;29.27;;
53618;SDS011;39505;53.040;18.488;2022-12-05T00:28:48;53.80;;;28.98;;
53618;SDS011;39505;53.040;18.488;2022-12-05T00:29:03;52.53;;;28.13;;
53618;SDS011;39505;53.040;18.488;2022-12-05T00:29:16;48.53;;;25.83;;
53618;SDS011;39505;53.040;18.488;2022-12-05T00:29:29;45.47;;;24.77;;
53618;SDS011;39505;53.040;18.488;2022-12-05T00:29:42;46.20;;;25.70;;
53618;SDS011;39505;53.040;18.488;2022-12-05T00:29:54;48.53;;;26.52;;
53618;SDS011;39505;53.040;18.488;2022-12-05T00:30:08;49.38;;;27.48;;
53618;SDS011;39505;53.040;18.488;2022-12-05T00:30:22;52.00;;;28.58;;
53618;SDS011;39505;53.040;18.488;2022-12-05T00:30:35;54.53;;;28.33;;
53618;SDS011;39505;53.040;18.488;2022-12-05T00:30:51;50.55;;;26.98;;
53618;SDS011;39505;53.040;18.488;2022-12-05T00:31:04;49.83;;;27.17;;
53618;SDS011;39505;53.040;18.488;2022-12-05T00:31:19;51.47;;;28.40;;
53618;SDS011;39505;53.040;18.488;2022-12-05T00:31:34;50.88;;;28.55;;
53618;SDS011;39505;53.040;18.488;2022-12-05T00:31:48;50.90;;;28.30;;
53618;SDS011;39505;53.040;18.488;2022-12-05T00:32:01;51.15;;;28.75;;
53618;SDS011;39505;53.040;18.488;2022-12-05T00:32:14;51.15;;;28.02;;
53618;SDS011;39505;53.040;18.488;2022-12-05T00:32:27;49.88;;;27.33;;
53618;SDS011;39505;53.040;18.488;2022-12-05T00:32:40;52.17;;;28.58;;
53618;SDS011;39505;53.040;18.488;2022-12-05T00:32:52;54.55;;;29.42;;
53618;SDS011;39505;53.040;18.488;2022-12-05T00:33:05;54.35;;;29.25;;
53618;SDS011;39505;53.040;18.488;2022-12-05T00:33:19;54.20;;;29.10;;
53618;SDS011;39505;53.040;18.488;2022-12-05T00:33:31;54.55;;;29.17;;
53618;SDS011;39505;53.040;18.488;2022-12-05T00:33:44;53.63;;;29.23;;
53618;SDS011;39505;53.040;18.488;2022-12-05T00:33:58;51.78;;;28.50;;
53618;SDS011;39505;53.040;18.488;2022-12-05T00:34:12;52.75;;;28.67;;
53618;SDS011;39505;53.040;18.488;2022-12-05T00:34:25;51.85;;;28.85;;
53618;SDS011;39505;53.040;18.488;2022-12-05T00:34:39;53.38;;;29.15;;
53618;SDS011;39505;53.040;18.488;2022-12-05T00:34:51;54.33;;;29.40;;
53618;SDS011;39505;53.040;18.488;2022-12-05T00:35:04;53.50;;;29.33;;
53618;SDS011;39505;53.040;18.488;2022-12-05T00:35:17;52.38;;;29.30;;
53618;SDS011;39505;53.040;18.488;2022-12-05T00:35:31;53.67;;;29.48;;
53618;SDS011;39505;53.040;18.488;2022-12-05T00:35:44;53.90;;;29.00;;
53618;SDS011;39505;53.040;18.488;2022-12-05T00:36:00;53.78;;;28.58;;
53618;SDS011;39505;53.040;18.488;2022-12-05T00:36:17;53.40;;;29.10;;
53618;SDS011;39505;53.040;18.488;2022-12-05T00:36:32;56.75;;;29.60;;
53618;SDS011;39505;53.040;18.488;2022-12-05T00:36:46;56.65;;;29.85;;
53618;SDS011;39505;53.040;18.488;2022-12-05T00:36:59;53.53;;;29.60;;
53618;SDS011;39505;53.040;18.488;2022-12-05T00:37:11;53.83;;;29.45;;
53618;SDS011;39505;53.040;18.488;2022-12-05T00:37:25;53.08;;;29.25;;
53618;SDS011;39505;53.040;18.488;2022-12-05T00:37:38;52.70;;;28.38;;
53618;SDS011;39505;53.040;18.488;2022-12-05T00:37:50;52.22;;;28.95;;
53618;SDS011;39505;53.040;18.488;2022-12-05T00:38:03;52.38;;;28.73;;
53618;SDS011;39505;53.040;18.488;2022-12-05T00:38:16;53.22;;;28.73;;
53618;SDS011;39505;53.040;18.488;2022-12-05T00:38:28;52.42;;;28.73;;
53618;SDS011;39505;53.040;18.488;2022-12-05T00:38:41;52.15;;;28.63;;
53618;SDS011;39505;53.040;18.488;2022-12-05T00:38:57;53.00;;;28.58;;
53618;SDS011;39505;53.040;18.488;2022-12-05T00:39:11;53.45;;;29.08;;
53618;SDS011;39505;53.040;18.488;2022-12-05T00:39:25;52.40;;;29.20;;
53618;SDS011;39505;53.040;18.488;2022-12-05T00:39:38;50.42;;;28.92;;
53618;SDS011;39505;53.040;18.488;2022-12-05T00:39:50;51.33;;;29.33;;
53618;SDS011;39505;53.040;18.488;2022-12-05T00:40:03;52.65;;;29.20;;
53618;SDS011;39505;53.040;18.488;2022-12-05T00:40:17;51.50;;;28.63;;
53618;SDS011;39505;53.040;18.488;2022-12-05T00:40:33;52.78;;;29.00;;
53618;SDS011;39505;53.040;18.488;2022-12-05T00:40:46;53.42;;;29.02;;
53618;SDS011;39505;53.040;18.488;2022-12-05T00:41:01;50.30;;;28.35;;
53618;SDS011;39505;53.040;18.488;2022-12-05T00:41:15;49.70;;;27.80;;
53618;SDS011;39505;53.040;18.488;2022-12-05T00:41:29;48.85;;;27.40;;
53618;SDS011;39505;53.040;18.488;2022-12-05T00:41:42;47.33;;;26.80;;
53618;SDS011;39505;53.040;18.488;2022-12-05T00:41:56;48.33;;;27.33;;
53618;SDS011;39505;53.040;18.488;2022-12-05T00:42:08;49.15;;;27.73;;
53618;SDS011;39505;53.040;18.488;2022-12-05T00:42:21;49.65;;;27.38;;
53618;SDS011;39505;53.040;18.488;2022-12-05T00:42:34;50.03;;;27.55;;
53618;SDS011;39505;53.040;18.488;2022-12-05T00:42:46;51.05;;;27.92;;
53618;SDS011;39505;53.040;18.488;2022-12-05T00:43:03;49.55;;;27.00;;
53618;SDS011;39505;53.040;18.488;2022-12-05T00:43:17;47.53;;;26.73;;
53618;SDS011;39505;53.040;18.488;2022-12-05T00:43:30;47.97;;;27.42;;
53618;SDS011;39505;53.040;18.488;2022-12-05T00:43:43;47.22;;;26.95;;
53618;SDS011;39505;53.040;18.488;2022-12-05T00:43:57;47.85;;;27.10;;
53618;SDS011;39505;53.040;18.488;2022-12-05T00:44:11;51.08;;;28.50;;
53618;SDS011;39505;53.040;18.488;2022-12-05T00:44:24;52.58;;;28.90;;
53618;SDS011;39505;53.040;18.488;2022-12-05T00:44:38;52.55;;;28.70;;
53618;SDS011;39505;53.040;18.488;2022-12-05T00:44:51;52.10;;;27.77;;
53618;SDS011;39505;53.040;18.488;2022-12-05T00:45:04;50.72;;;26.98;;
53618;SDS011;39505;53.040;18.488;2022-12-05T00:45:17;49.70;;;26.85;;
53618;SDS011;39505;53.040;18.488;2022-12-05T00:45:30;51.13;;;28.15;;
53618;SDS011;39505;53.040;18.488;2022-12-05T00:45:42;54.67;;;28.95;;
53618;SDS011;39505;53.040;18.488;2022-12-05T00:45:55;54.58;;;28.63;;
53618;SDS011;39505;53.040;18.488;2022-12-05T00:46:12;51.10;;;27.15;;
53618;SDS011;39505;53.040;18.488;2022-12-05T00:46:28;49.65;;;26.88;;
53618;SDS011;39505;53.040;18.488;2022-12-05T00:46:42;49.20;;;27.30;;
53618;SDS011;39505;53.040;18.488;2022-12-05T00:46:55;48.63;;;27.20;;
53618;SDS011;39505;53.040;18.488;2022-12-05T00:47:07;49.90;;;27.65;;
53618;SDS011;39505;53.040;18.488;2022-12-05T00:47:21;52.33;;;28.08;;
53618;SDS011;39505;53.040;18.488;2022-12-05T00:47:34;53.55;;;28.50;;
53618;SDS011;39505;53.040;18.488;2022-12-05T00:47:47;53.72;;;28.67;;
53618;SDS011;39505;53.040;18.488;2022-12-05T00:48:00;52.20;;;28.52;;
53618;SDS011;39505;53.040;18.488;2022-12-05T00:48:12;51.15;;;28.40;;
53618;SDS011;39505;53.040;18.488;2022-12-05T00:48:25;50.53;;;27.83;;
53618;SDS011;39505;53.040;18.488;2022-12-05T00:48:38;52.15;;;28.27;;
53618;SDS011;39505;53.040;18.488;2022-12-05T00:48:51;51.83;;;28.33;;
53618;SDS011;39505;53.040;18.488;2022-12-05T00:49:05;50.63;;;28.38;;
53618;SDS011;39505;53.040;18.488;2022-12-05T00:49:18;50.05;;;28.55;;
53618;SDS011;39505;53.040;18.488;2022-12-05T00:49:31;52.55;;;28.63;;
53618;SDS011;39505;53.040;18.488;2022-12-05T00:49:44;52.78;;;28.92;;
53618;SDS011;39505;53.040;18.488;2022-12-05T00:49:56;53.47;;;28.77;;
53618;SDS011;39505;53.040;18.488;2022-12-05T00:50:10;56.95;;;29.52;;
53618;SDS011;39505;53.040;18.488;2022-12-05T00:50:22;54.75;;;29.35;;
53618;SDS011;39505;53.040;18.488;2022-12-05T00:50:36;53.58;;;29.20;;
53618;SDS011;39505;53.040;18.488;2022-12-05T00:50:49;51.47;;;28.75;;
53618;SDS011;39505;53.040;18.488;2022-12-05T00:51:03;51.85;;;28.63;;
53618;SDS011;39505;53.040;18.488;2022-12-05T00:51:18;54.17;;;28.90;;
53618;SDS011;39505;53.040;18.488;2022-12-05T00:51:33;50.78;;;28.02;;
53618;SDS011;39505;53.040;18.488;2022-12-05T00:51:47;47.63;;;27.45;;
53618;SDS011;39505;53.040;18.488;2022-12-05T00:52:01;49.05;;;27.95;;
53618;SDS011;39505;53.040;18.488;2022-12-05T00:52:14;49.13;;;27.73;;
53618;SDS011;39505;53.040;18.488;2022-12-05T00:52:27;50.92;;;28.23;;
53618;SDS011;39505;53.040;18.488;2022-12-05T00:52:40;52.30;;;28.13;;
53618;SDS011;39505;53.040;18.488;2022-12-05T00:52:52;51.85;;;27.98;;
53618;SDS011;39505;53.040;18.488;2022-12-05T00:53:05;48.80;;;28.25;;
53618;SDS011;39505;53.040;18.488;2022-12-05T00:53:18;48.17;;;28.10;;
53618;SDS011;39505;53.040;18.488;2022-12-05T00:53:31;49.00;;;27.65;;
53618;SDS011;39505;53.040;18.488;2022-12-05T00:53:45;50.47;;;28.15;;
53618;SDS011;39505;53.040;18.488;2022-12-05T00:53:59;49.03;;;27.73;;
53618;SDS011;39505;53.040;18.488;2022-12-05T00:54:15;51.05;;;27.42;;
53618;SDS011;39505;53.040;18.488;2022-12-05T00:54:27;51.72;;;28.02;;
53618;SDS011;39505;53.040;18.488;2022-12-05T00:54:42;49.60;;;28.13;;
53618;SDS011;39505;53.040;18.488;2022-12-05T00:54:55;49.65;;;27.90;;
53618;SDS011;39505;53.040;18.488;2022-12-05T00:55:08;48.38;;;27.60;;
53618;SDS011;39505;53.040;18.488;2022-12-05T00:55:20;48.42;;;27.33;;
53618;SDS011;39505;53.040;18.488;2022-12-05T00:55:35;48.45;;;27.55;;
53618;SDS011;39505;53.040;18.488;2022-12-05T00:55:48;49.17;;;27.55;;
53618;SDS011;39505;53.040;18.488;2022-12-05T00:56:00;48.95;;;27.48;;
53618;SDS011;39505;53.040;18.488;2022-12-05T00:56:15;50.80;;;27.90;;
53618;SDS011;39505;53.040;18.488;2022-12-05T00:56:32;52.35;;;28.33;;
53618;SDS011;39505;53.040;18.488;2022-12-05T00:56:45;52.45;;;28.73;;
53618;SDS011;39505;53.040;18.488;2022-12-05T00:56:58;51.75;;;28.27;;
53618;SDS011;39505;53.040;18.488;2022-12-05T00:57:11;51.70;;;27.80;;
53618;SDS011;39505;53.040;18.488;2022-12-05T00:57:23;50.72;;;27.70;;
53618;SDS011;39505;53.040;18.488;2022-12-05T00:57:36;49.33;;;27.73;;
53618;SDS011;39505;53.040;18.488;2022-12-05T00:57:49;48.83;;;27.73;;
53618;SDS011;39505;53.040;18.488;2022-12-05T00:58:03;48.40;;;27.67;;
53618;SDS011;39505;53.040;18.488;2022-12-05T00:58:15;49.50;;;28.13;;
53618;SDS011;39505;53.040;18.488;2022-12-05T00:58:28;48.33;;;27.70;;
53618;SDS011;39505;53.040;18.488;2022-12-05T00:58:41;50.70;;;28.30;;
53618;SDS011;39505;53.040;18.488;2022-12-05T00:58:54;51.55;;;28.55;;
53618;SDS011;39505;53.040;18.488;2022-12-05T00:59:11;49.88;;;28.27;;
53618;SDS011;39505;53.040;18.488;2022-12-05T00:59:27;48.75;;;28.17;;
53618;SDS011;39505;53.040;18.488;2022-12-05T00:59:39;49.40;;;28.23;;
53618;SDS011;39505;53.040;18.488;2022-12-05T00:59:52;49.70;;;27.85;;
53618;SDS011;39505;53.040;18.488;2022-12-05T01:00:06;49.75;;;27.63;;
53618;SDS011;39505;53.040;18.488;2022-12-05T01:00:20;50.42;;;28.10;;
53618;SDS011;39505;53.040;18.488;2022-12-05T01:00:32;51.03;;;28.77;;
53618;SDS011;39505;53.040;18.488;2022-12-05T01:00:45;50.55;;;28.83;;
53618;SDS011;39505;53.040;18.488;2022-12-05T01:01:03;49.13;;;27.90;;
53618;SDS011;39505;53.040;18.488;2022-12-05T01:01:19;49.85;;;27.67;;
53618;SDS011;39505;53.040;18.488;2022-12-05T01:01:35;50.63;;;28.20;;
53618;SDS011;39505;53.040;18.488;2022-12-05T01:01:49;49.50;;;28.52;;
53618;SDS011;39505;53.040;18.488;2022-12-05T01:02:02;47.47;;;27.90;;
53618;SDS011;39505;53.040;18.488;2022-12-05T01:02:15;48.60;;;27.88;;
53618;SDS011;39505;53.040;18.488;2022-12-05T01:02:29;49.15;;;27.70;;
53618;SDS011;39505;53.040;18.488;2022-12-05T01:02:41;49.10;;;28.13;;
53618;SDS011;39505;53.040;18.488;2022-12-05T01:02:55;50.03;;;28.02;;
53618;SDS011;39505;53.040;18.488;2022-12-05T01:03:08;51.08;;;28.10;;
53618;SDS011;39505;53.040;18.488;2022-12-05T01:03:21;51.40;;;28.45;;
53618;SDS011;39505;53.040;18.488;2022-12-05T01:03:33;49.53;;;28.50;;
53618;SDS011;39505;53.040;18.488;2022-12-05T01:03:47;50.90;;;28.92;;
53618;SDS011;39505;53.040;18.488;2022-12-05T01:04:00;52.92;;;28.90;;
53618;SDS011;39505;53.040;18.488;2022-12-05T01:04:15;51.35;;;28.27;;
53618;SDS011;39505;53.040;18.488;2022-12-05T01:04:31;50.70;;;28.08;;
53618;SDS011;39505;53.040;18.488;2022-12-05T01:04:43;52.17;;;28.90;;
53618;SDS011;39505;53.040;18.488;2022-12-05T01:04:56;49.90;;;28.88;;
53618;SDS011;39505;53.040;18.488;2022-12-05T01:05:09;47.95;;;27.65;;
53618;SDS011;39505;53.040;18.488;2022-12-05T01:05:22;46.15;;;26.83;;
53618;SDS011;39505;53.040;18.488;2022-12-05T01:05:34;44.90;;;26.02;;
53618;SDS011;39505;53.040;18.488;2022-12-05T01:05:47;47.55;;;26.30;;
53618;SDS011;39505;53.040;18.488;2022-12-05T01:06:00;49.85;;;27.25;;
53618;SDS011;39505;53.040;18.488;2022-12-05T01:06:15;50.42;;;28.45;;
53618;SDS011;39505;53.040;18.488;2022-12-05T01:06:29;50.25;;;28.85;;
53618;SDS011;39505;53.040;18.488;2022-12-05T01:06:42;49.42;;;28.35;;
53618;SDS011;39505;53.040;18.488;2022-12-05T01:06:55;48.40;;;27.73;;
53618;SDS011;39505;53.040;18.488;2022-12-05T01:07:09;48.42;;;27.88;;
53618;SDS011;39505;53.040;18.488;2022-12-05T01:07:22;48.40;;;28.58;;
53618;SDS011;39505;53.040;18.488;2022-12-05T01:07:36;46.83;;;27.95;;
53618;SDS011;39505;53.040;18.488;2022-12-05T01:07:48;46.10;;;27.30;;
53618;SDS011;39505;53.040;18.488;2022-12-05T01:08:01;45.85;;;26.60;;
53618;SDS011;39505;53.040;18.488;2022-12-05T01:08:14;47.28;;;26.60;;
53618;SDS011;39505;53.040;18.488;2022-12-05T01:08:27;49.63;;;27.65;;
53618;SDS011;39505;53.040;18.488;2022-12-05T01:08:40;49.65;;;28.17;;
53618;SDS011;39505;53.040;18.488;2022-12-05T01:08:53;48.80;;;28.02;;
53618;SDS011;39505;53.040;18.488;2022-12-05T01:09:07;50.10;;;28.35;;
53618;SDS011;39505;53.040;18.488;2022-12-05T01:09:24;49.85;;;28.55;;
53618;SDS011;39505;53.040;18.488;2022-12-05T01:09:37;49.65;;;28.38;;
53618;SDS011;39505;53.040;18.488;2022-12-05T01:09:50;49.17;;;28.35;;
53618;SDS011;39505;53.040;18.488;2022-12-05T01:10:03;49.72;;;28.10;;
53618;SDS011;39505;53.040;18.488;2022-12-05T01:10:16;48.92;;;27.60;;
53618;SDS011;39505;53.040;18.488;2022-12-05T01:10:29;48.03;;;28.15;;
53618;SDS011;39505;53.040;18.488;2022-12-05T01:10:49;49.40;;;28.92;;
53618;SDS011;39505;53.040;18.488;2022-12-05T01:11:06;49.17;;;28.60;;
53618;SDS011;39505;53.040;18.488;2022-12-05T01:11:20;47.40;;;27.50;;
53618;SDS011;39505;53.040;18.488;2022-12-05T01:11:34;46.72;;;26.33;;
53618;SDS011;39505;53.040;18.488;2022-12-05T01:11:52;47.50;;;26.67;;
53618;SDS011;39505;53.040;18.488;2022-12-05T01:12:05;45.33;;;26.58;;
53618;SDS011;39505;53.040;18.488;2022-12-05T01:12:19;44.08;;;26.48;;
53618;SDS011;39505;53.040;18.488;2022-12-05T01:12:32;43.55;;;25.33;;
53618;SDS011;39505;53.040;18.488;2022-12-05T01:12:45;44.30;;;25.42;;
53618;SDS011;39505;53.040;18.488;2022-12-05T01:12:57;46.08;;;26.00;;
53618;SDS011;39505;53.040;18.488;2022-12-05T01:13:10;48.53;;;26.20;;
53618;SDS011;39505;53.040;18.488;2022-12-05T01:13:23;48.67;;;26.40;;
53618;SDS011;39505;53.040;18.488;2022-12-05T01:13:37;45.80;;;25.83;;
53618;SDS011;39505;53.040;18.488;2022-12-05T01:13:50;42.97;;;26.00;;
53618;SDS011;39505;53.040;18.488;2022-12-05T01:14:05;42.47;;;26.38;;
53618;SDS011;39505;53.040;18.488;2022-12-05T01:14:19;42.88;;;26.38;;
53618;SDS011;39505;53.040;18.488;2022-12-05T01:14:34;47.35;;;26.80;;
53618;SDS011;39505;53.040;18.488;2022-12-05T01:14:47;47.95;;;26.60;;
53618;SDS011;39505;53.040;18.488;2022-12-05T01:14:59;46.90;;;26.42;;
53618;SDS011;39505;53.040;18.488;2022-12-05T01:15:12;47.20;;;26.40;;
53618;SDS011;39505;53.040;18.488;2022-12-05T01:15:26;45.40;;;25.70;;
53618;SDS011;39505;53.040;18.488;2022-12-05T01:15:39;44.40;;;25.40;;
53618;SDS011;39505;53.040;18.488;2022-12-05T01:15:51;43.88;;;25.73;;
53618;SDS011;39505;53.040;18.488;2022-12-05T01:16:05;44.35;;;25.77;;
53618;SDS011;39505;53.040;18.488;2022-12-05T01:16:19;45.10;;;25.60;;
53618;SDS011;39505;53.040;18.488;2022-12-05T01:16:34;44.33;;;25.38;;
53618;SDS011;39505;53.040;18.488;2022-12-05T01:16:49;43.28;;;25.02;;
53618;SDS011;39505;53.040;18.488;2022-12-05T01:17:03;43.60;;;25.30;;
53618;SDS011;39505;53.040;18.488;2022-12-05T01:17:16;45.65;;;26.20;;
53618;SDS011;39505;53.040;18.488;2022-12-05T01:17:29;44.40;;;26.02;;
53618;SDS011;39505;53.040;18.488;2022-12-05T01:17:42;43.58;;;25.73;;
53618;SDS011;39505;53.040;18.488;2022-12-05T01:17:55;44.53;;;26.15;;
53618;SDS011;39505;53.040;18.488;2022-12-05T01:18:07;45.00;;;26.52;;